Terminal Aerodrome Forecast
Issued by NWS

Home | Current Version | Previous Version | Text Only | Print | Product List | Glossary On
Versions: 1 2 3 4 5 6 7 8 9 10 11 12 13
993
FTUS45 KREV 271135
TAFMMH
TAF
KMMH 271135Z 2712/2812 23012G24KT P6SM VCSH SCT020 BKN035 OVC040
      TEMPO 2712/2716 3SM -SN BKN020 OVC030
     FM272200 26010KT P6SM VCSH BKN040
     FM280300 29006KT P6SM SCT050 BKN140=

USA.gov is the U.S. government's official web portal to all federal, state and local government web resources and services.